Time;durP1;ratioP1;P1;durP2;ratioP2;P2;SDS_P1;SDS_P2;PMS_P1;PMS_P2;Temp;Humidity;BMP_temperature;BMP_pressure;BME280_temperature;BME280_humidity;BME280_pressure;Samples;Min_cycle;Max_cycle;Signal;HPM_P1;HPM_P2
2021/06/05 00:02:22;;;;;;;2.70;1.73;;;16.30;99.90;;;;;;5053534;28;20473;-82
2021/06/05 00:04:49;;;;;;;2.57;1.30;;;16.30;99.90;;;;;;5053724;28;20500;-81
2021/06/05 00:07:15;;;;;;;2.70;2.10;;;16.30;99.90;;;;;;5053593;28;20441;-81
2021/06/05 00:09:43;;;;;;;3.27;1.73;;;16.30;99.90;;;;;;5053621;28;20438;-82
2021/06/05 00:12:12;;;;;;;1.70;1.60;;;16.20;99.90;;;;;;5054348;28;20466;-89
2021/06/05 00:14:39;;;;;;;1.87;1.47;;;16.20;99.90;;;;;;5055089;28;20438;-79
2021/06/05 00:17:06;;;;;;;3.13;2.07;;;16.20;99.90;;;;;;5053154;28;20445;-79
2021/06/05 00:19:32;;;;;;;1.83;1.73;;;16.20;99.90;;;;;;5054037;28;20583;-84
2021/06/05 00:21:58;;;;;;;1.83;1.57;;;16.20;99.90;;;;;;5054270;28;21038;-85
2021/06/05 00:24:25;;;;;;;2.53;1.80;;;16.10;99.90;;;;;;5053693;28;20485;-80
2021/06/05 00:26:51;;;;;;;2.20;2.03;;;16.10;99.90;;;;;;5053214;28;20945;-89
2021/06/05 00:29:18;;;;;;;3.27;1.63;;;16.10;99.90;;;;;;5054223;28;20487;-88
2021/06/05 00:31:46;;;;;;;2.13;1.77;;;16.00;99.90;;;;;;5054059;28;20446;-89
2021/06/05 00:34:12;;;;;;;2.73;1.83;;;15.90;99.90;;;;;;5054389;28;20434;-88
2021/06/05 00:36:39;;;;;;;1.90;1.70;;;15.90;99.90;;;;;;5060290;28;20463;-80
2021/06/05 00:39:07;;;;;;;3.03;1.97;;;15.80;99.90;;;;;;5059515;28;20490;-80
2021/06/05 00:41:33;;;;;;;1.77;1.67;;;15.70;99.90;;;;;;5059886;28;20476;-85
2021/06/05 00:44:03;;;;;;;2.30;1.40;;;15.80;99.90;;;;;;5060402;28;20485;-82
2021/06/05 00:46:31;;;;;;;1.97;1.77;;;15.70;99.90;;;;;;5059967;28;20437;-80
2021/06/05 00:48:59;;;;;;;3.43;1.50;;;15.70;99.90;;;;;;5059708;28;20429;-81
2021/06/05 00:51:34;;;;;;;3.40;1.43;;;15.80;99.90;;;;;;5059970;28;20465;-82
2021/06/05 00:54:00;;;;;;;1.67;1.57;;;15.90;99.90;;;;;;5059821;28;21001;-82
2021/06/05 00:56:27;;;;;;;1.57;1.47;;;15.90;99.90;;;;;;5060311;28;20446;-82
2021/06/05 00:58:53;;;;;;;2.67;1.50;;;15.90;99.90;;;;;;5060373;28;20449;-82
2021/06/05 01:01:23;;;;;;;2.80;1.70;;;16.00;99.90;;;;;;5060399;28;20453;-87
2021/06/05 01:03:50;;;;;;;2.80;1.37;;;16.00;99.90;;;;;;5061021;28;20465;-86
2021/06/05 01:06:24;;;;;;;3.87;1.10;;;16.00;99.90;;;;;;5060370;28;20945;-85
2021/06/05 01:08:58;;;;;;;1.30;1.20;;;16.00;99.90;;;;;;5060901;28;20422;-86
2021/06/05 01:11:33;;;;;;;19.77;2.43;;;16.10;99.90;;;;;;5060394;28;20469;-88
2021/06/05 01:14:05;;;;;;;1.67;1.50;;;16.10;99.90;;;;;;5060499;28;20428;-88
2021/06/05 01:16:32;;;;;;;1.27;1.17;;;16.10;99.90;;;;;;5060936;28;20441;-87
2021/06/05 01:19:03;;;;;;;2.30;1.53;;;16.10;99.90;;;;;;5060453;28;20929;-87
2021/06/05 01:22:00;;;;;;;2.50;1.70;;;16.10;99.90;;;;;;5060318;28;20461;-89
2021/06/05 01:24:38;;;;;;;1.60;1.30;;;16.10;99.90;;;;;;5060587;28;20496;-87
2021/06/05 01:27:11;;;;;;;1.23;1.00;;;16.10;99.90;;;;;;5060667;28;20418;-86
2021/06/05 01:29:40;;;;;;;1.40;1.30;;;16.10;99.90;;;;;;5060640;28;20807;-86
2021/06/05 01:32:11;;;;;;;1.33;1.10;;;16.20;99.90;;;;;;5060472;28;20488;-89
2021/06/05 01:34:40;;;;;;;1.30;1.20;;;16.20;99.90;;;;;;5060660;28;20460;-89
2021/06/05 01:37:09;;;;;;;2.30;1.50;;;16.20;99.90;;;;;;5060250;28;20924;-88
2021/06/05 01:39:38;;;;;;;0.90;0.90;;;16.20;99.90;;;;;;5060844;28;20442;-89
2021/06/05 01:42:10;;;;;;;1.37;1.27;;;16.20;99.90;;;;;;5060486;28;20453;-89
2021/06/05 01:44:39;;;;;;;1.73;1.30;;;16.20;99.90;;;;;;5060407;28;20465;-88
2021/06/05 01:47:06;;;;;;;1.47;1.30;;;16.10;99.90;;;;;;5057948;28;20983;-88
2021/06/05 01:49:33;;;;;;;1.73;1.00;;;16.10;99.90;;;;;;5057332;28;20433;-89
2021/06/05 01:52:04;;;;;;;1.27;0.90;;;16.10;99.90;;;;;;5057475;28;20474;-88
2021/06/05 01:54:35;;;;;;;2.00;1.00;;;16.10;99.90;;;;;;5057432;28;20430;-89
2021/06/05 01:57:04;;;;;;;3.63;1.57;;;16.10;99.90;;;;;;5057019;28;20937;-88
2021/06/05 01:59:33;;;;;;;1.93;1.60;;;16.00;99.90;;;;;;5059580;28;20468;-89
2021/06/05 02:02:00;;;;;;;2.40;1.03;;;16.00;99.90;;;;;;5056891;28;20536;-89
2021/06/05 02:04:26;;;;;;;1.30;1.00;;;16.00;99.90;;;;;;5057123;28;20482;-89
2021/06/05 02:06:54;;;;;;;1.77;1.37;;;16.00;99.90;;;;;;5057057;28;20452;-89
2021/06/05 02:09:24;;;;;;;1.00;1.00;;;16.00;99.90;;;;;;5056883;28;20598;-89
2021/06/05 02:11:55;;;;;;;1.13;1.10;;;16.00;99.90;;;;;;5061503;28;20473;-85
2021/06/05 02:14:28;;;;;;;2.17;1.17;;;16.00;99.90;;;;;;5063620;28;20439;-85
2021/06/05 02:16:57;;;;;;;2.17;1.47;;;16.00;99.90;;;;;;5061910;28;20458;-86
2021/06/05 02:19:28;;;;;;;1.80;1.20;;;16.00;99.90;;;;;;5059729;28;20453;-80
2021/06/05 02:21:57;;;;;;;1.53;1.43;;;16.00;99.90;;;;;;5055542;28;20479;-81
2021/06/05 02:24:27;;;;;;;1.27;1.10;;;16.00;99.90;;;;;;5055400;28;20524;-80
2021/06/05 02:26:53;;;;;;;1.80;1.53;;;16.00;99.90;;;;;;5055455;28;20503;-80
2021/06/05 02:29:22;;;;;;;1.27;1.00;;;16.00;99.90;;;;;;5055444;28;20446;-81
2021/06/05 02:31:49;;;;;;;1.37;1.10;;;16.00;99.90;;;;;;5054976;28;20474;-80
2021/06/05 02:34:20;;;;;;;1.07;0.97;;;16.00;99.90;;;;;;5055108;28;20438;-80
2021/06/05 02:36:50;;;;;;;1.37;0.90;;;16.00;99.90;;;;;;5056331;28;20446;-85
2021/06/05 02:39:18;;;;;;;2.83;1.00;;;16.00;99.90;;;;;;5056367;28;20461;-86
2021/06/05 02:41:47;;;;;;;1.10;1.00;;;16.10;99.90;;;;;;5056093;28;20538;-83
2021/06/05 02:44:15;;;;;;;1.00;1.00;;;16.10;99.90;;;;;;5055483;28;20490;-83
2021/06/05 02:46:42;;;;;;;1.60;0.90;;;16.00;99.90;;;;;;5055410;28;20441;-83
2021/06/05 02:49:25;;;;;;;2.20;0.90;;;16.10;99.90;;;;;;5055296;28;20440;-83
2021/06/05 02:51:56;;;;;;;1.50;1.00;;;16.10;99.90;;;;;;5055817;28;20869;-83
2021/06/05 02:54:24;;;;;;;0.80;0.80;;;16.10;99.90;;;;;;5055959;28;20419;-89
2021/06/05 02:56:50;;;;;;;1.83;1.17;;;16.10;99.90;;;;;;5055926;28;20933;-90
2021/06/05 02:59:17;;;;;;;3.60;1.00;;;16.10;99.90;;;;;;5055184;28;20438;-90
2021/06/05 03:01:43;;;;;;;1.67;1.10;;;16.10;99.90;;;;;;5055761;28;20587;-89
2021/06/05 03:04:09;;;;;;;2.60;1.20;;;16.10;99.90;;;;;;5056335;28;20485;-90
2021/06/05 03:06:37;;;;;;;0.80;0.80;;;16.10;99.90;;;;;;5056366;28;20991;-90
2021/06/05 03:09:04;;;;;;;1.20;1.10;;;16.10;99.90;;;;;;5056047;28;20488;-89
2021/06/05 03:11:30;;;;;;;2.40;1.50;;;16.10;99.90;;;;;;5056460;28;20466;-90
2021/06/05 03:13:56;;;;;;;1.63;1.20;;;16.20;99.90;;;;;;5056281;28;20453;-89
2021/06/05 03:16:23;;;;;;;1.70;1.60;;;16.20;99.90;;;;;;5056354;28;20445;-89
2021/06/05 03:18:50;;;;;;;2.87;1.23;;;16.10;99.90;;;;;;5055859;28;20491;-90
2021/06/05 03:21:19;;;;;;;2.40;1.07;;;16.10;99.90;;;;;;5056203;28;20902;-90
2021/06/05 03:23:48;;;;;;;1.47;1.37;;;16.10;99.90;;;;;;5056115;28;20513;-90
2021/06/05 03:26:16;;;;;;;2.20;1.30;;;16.10;99.90;;;;;;5055731;28;20430;-89
2021/06/05 03:28:42;;;;;;;1.20;1.10;;;16.10;99.90;;;;;;5055701;28;20434;-88
2021/06/05 03:31:10;;;;;;;1.50;1.33;;;16.10;99.90;;;;;;5055967;28;20476;-90
2021/06/05 03:33:36;;;;;;;1.57;1.47;;;16.10;99.90;;;;;;5055942;28;20446;-89
2021/06/05 03:36:05;;;;;;;1.43;1.33;;;16.10;99.90;;;;;;5055662;28;20442;-89
2021/06/05 03:38:32;;;;;;;3.13;1.00;;;16.10;99.90;;;;;;5055174;28;20484;-89
2021/06/05 03:41:00;;;;;;;1.30;1.20;;;16.20;99.90;;;;;;5055758;28;20470;-88
2021/06/05 03:43:27;;;;;;;1.40;1.23;;;16.20;99.90;;;;;;5055596;28;20465;-89
2021/06/05 03:45:53;;;;;;;1.00;0.90;;;16.20;99.90;;;;;;5055864;28;20946;-89
2021/06/05 03:48:20;;;;;;;2.27;1.53;;;16.30;99.90;;;;;;5055386;28;20435;-89
2021/06/05 03:50:50;;;;;;;1.20;1.10;;;16.20;99.90;;;;;;5055754;28;20860;-89
2021/06/05 03:53:18;;;;;;;1.10;1.00;;;16.20;99.90;;;;;;5055805;28;20430;-88
2021/06/05 03:55:44;;;;;;;1.27;1.00;;;16.20;99.90;;;;;;5055356;28;20503;-88
2021/06/05 03:58:12;;;;;;;2.93;1.07;;;16.20;99.90;;;;;;5055144;28;20434;-89
2021/06/05 04:00:41;;;;;;;1.50;1.03;;;16.20;99.90;;;;;;5055469;28;20850;-89
2021/06/05 04:03:09;;;;;;;1.27;1.17;;;16.20;99.90;;;;;;5055176;28;20457;-89
2021/06/05 04:05:37;;;;;;;1.27;0.97;;;16.30;99.90;;;;;;5055064;28;20477;-89
2021/06/05 04:08:07;;;;;;;2.07;1.00;;;16.30;99.90;;;;;;5055525;28;20449;-89
2021/06/05 04:10:33;;;;;;;1.10;1.10;;;16.30;99.90;;;;;;5054534;28;20941;-88
2021/06/05 04:13:00;;;;;;;1.47;0.90;;;16.30;99.90;;;;;;5054753;28;20483;-89
2021/06/05 04:15:30;;;;;;;1.77;0.93;;;16.30;99.90;;;;;;5055129;28;20449;-89
2021/06/05 04:18:05;;;;;;;1.20;0.97;;;16.20;99.90;;;;;;5055083;28;20434;-88
2021/06/05 04:20:32;;;;;;;1.30;0.97;;;16.30;99.90;;;;;;5054441;28;20546;-88
2021/06/05 04:22:58;;;;;;;1.00;1.00;;;16.30;99.90;;;;;;5054344;28;20449;-89
2021/06/05 04:25:25;;;;;;;2.97;1.10;;;16.30;99.90;;;;;;5056952;28;20486;-88
2021/06/05 04:27:51;;;;;;;1.17;1.07;;;16.20;99.90;;;;;;5067924;28;20537;-88
2021/06/05 04:30:20;;;;;;;0.97;0.97;;;16.20;99.90;;;;;;5066057;28;20852;-88
2021/06/05 04:32:48;;;;;;;5.50;1.40;;;16.30;99.90;;;;;;5066092;28;20972;-83
2021/06/05 04:35:15;;;;;;;2.50;1.03;;;16.30;99.90;;;;;;5059120;28;20556;-88
2021/06/05 04:37:42;;;;;;;2.10;1.53;;;16.30;99.90;;;;;;5054301;28;20876;-88
2021/06/05 04:40:09;;;;;;;3.33;2.73;;;16.30;99.90;;;;;;5054521;28;20496;-88
2021/06/05 04:42:35;;;;;;;1.73;1.43;;;16.30;99.90;;;;;;5054406;28;20462;-89
2021/06/05 04:45:05;;;;;;;1.57;1.00;;;16.40;99.90;;;;;;5054316;28;20481;-88
2021/06/05 04:47:31;;;;;;;1.10;1.10;;;16.40;99.90;;;;;;5054270;28;20567;-88
2021/06/05 04:49:59;;;;;;;1.23;1.13;;;16.40;99.90;;;;;;5055518;28;20434;-89
2021/06/05 04:52:25;;;;;;;3.10;1.20;;;16.40;99.90;;;;;;5053915;28;20458;-89
2021/06/05 04:54:52;;;;;;;0.80;0.80;;;16.40;99.90;;;;;;5053934;28;20933;-89
2021/06/05 04:57:18;;;;;;;1.20;1.10;;;16.50;99.90;;;;;;5054260;28;20482;-88
2021/06/05 04:59:45;;;;;;;0.93;0.93;;;16.50;99.90;;;;;;5054342;28;20446;-89
2021/06/05 05:02:11;;;;;;;1.23;1.13;;;16.60;99.90;;;;;;5053897;28;21003;-89
2021/06/05 05:04:37;;;;;;;1.87;1.13;;;16.70;99.90;;;;;;5054054;28;20556;-90
2021/06/05 05:07:05;;;;;;;1.40;1.00;;;16.80;99.90;;;;;;5054513;28;20438;-89
2021/06/05 05:09:31;;;;;;;2.57;1.50;;;16.90;99.90;;;;;;5054619;28;20445;-89
2021/06/05 05:11:58;;;;;;;1.50;1.40;;;16.90;99.90;;;;;;5060853;28;20456;-89
2021/06/05 05:14:25;;;;;;;2.20;1.20;;;17.00;99.90;;;;;;5063071;28;20477;-89
2021/06/05 05:16:51;;;;;;;1.10;1.00;;;17.00;99.90;;;;;;5054864;28;20500;-90
2021/06/05 05:19:17;;;;;;;2.77;1.57;;;17.10;99.90;;;;;;5054084;28;20436;-89
2021/06/05 05:21:44;;;;;;;1.20;1.07;;;17.10;99.90;;;;;;5054548;28;20470;-90
2021/06/05 05:24:12;;;;;;;2.30;1.07;;;17.20;99.90;;;;;;5057835;28;20472;-90
2021/06/05 05:26:38;;;;;;;1.90;1.00;;;17.30;99.90;;;;;;5057749;28;20453;-89
2021/06/05 05:29:05;;;;;;;2.70;1.80;;;17.30;99.90;;;;;;5057359;28;20956;-89
2021/06/05 05:31:31;;;;;;;1.20;1.10;;;17.40;99.90;;;;;;5057497;28;20465;-90
2021/06/05 05:34:00;;;;;;;1.53;1.43;;;17.50;99.90;;;;;;5057596;28;20434;-90
2021/06/05 05:36:28;;;;;;;1.77;0.90;;;17.60;99.90;;;;;;5057366;28;20454;-90
2021/06/05 05:38:55;;;;;;;2.97;1.17;;;17.60;99.90;;;;;;5057125;28;20481;-90
2021/06/05 05:41:24;;;;;;;2.10;1.10;;;17.70;99.90;;;;;;5057192;28;20453;-90
2021/06/05 05:43:51;;;;;;;1.00;0.90;;;17.70;99.90;;;;;;5057685;28;20446;-90
2021/06/05 05:46:18;;;;;;;2.23;1.13;;;17.80;99.90;;;;;;5057308;28;20481;-90
2021/06/05 05:48:44;;;;;;;2.20;1.27;;;17.80;99.90;;;;;;5057690;28;20964;-90
2021/06/05 05:51:14;;;;;;;1.73;1.10;;;17.90;99.90;;;;;;5057672;28;20473;-91
2021/06/05 05:53:41;;;;;;;2.07;1.67;;;17.90;99.90;;;;;;5057362;28;20814;-91
2021/06/05 05:56:08;;;;;;;2.33;1.20;;;17.80;99.90;;;;;;5057297;28;20446;-90
2021/06/05 05:58:38;;;;;;;1.43;1.33;;;17.80;99.90;;;;;;5057189;28;20460;-90
2021/06/05 06:01:06;;;;;;;3.27;2.63;;;17.80;99.90;;;;;;5057032;28;20473;-91
2021/06/05 06:03:32;;;;;;;1.43;1.33;;;17.80;99.90;;;;;;5057009;28;20495;-91
2021/06/05 06:05:58;;;;;;;1.10;1.10;;;17.80;99.90;;;;;;5056667;28;20600;-90
2021/06/05 06:08:24;;;;;;;1.30;1.20;;;17.90;99.90;;;;;;5057104;28;20449;-91
2021/06/05 06:10:51;;;;;;;3.97;1.80;;;17.90;99.90;;;;;;5056890;28;20454;-91
2021/06/05 06:13:18;;;;;;;1.37;1.10;;;18.00;99.90;;;;;;5056910;28;20442;-90
2021/06/05 06:15:46;;;;;;;1.37;1.20;;;18.00;99.90;;;;;;5057046;28;20446;-91
2021/06/05 06:18:13;;;;;;;1.23;1.00;;;18.00;99.90;;;;;;5057091;28;20476;-90
2021/06/05 06:20:43;;;;;;;3.60;1.13;;;18.00;99.90;;;;;;5056989;28;20850;-91
2021/06/05 06:23:10;;;;;;;1.30;1.20;;;18.00;99.90;;;;;;5056855;28;20440;-90
2021/06/05 06:25:39;;;;;;;1.37;1.27;;;18.00;99.90;;;;;;5056708;28;21015;-90
2021/06/05 06:28:06;;;;;;;2.20;1.20;;;18.10;99.90;;;;;;5057090;28;20442;-91
2021/06/05 06:30:35;;;;;;;1.23;1.00;;;18.20;99.90;;;;;;5057930;28;20411;-93
2021/06/05 06:33:04;;;;;;;2.60;1.10;;;18.40;99.90;;;;;;5057788;28;20517;-92
2021/06/05 06:35:32;;;;;;;1.23;0.97;;;18.50;99.90;;;;;;5056937;28;20428;-91
2021/06/05 06:37:58;;;;;;;1.40;1.30;;;18.60;99.90;;;;;;5056756;28;20505;-92
2021/06/05 06:40:27;;;;;;;1.37;0.90;;;18.70;99.90;;;;;;5056504;28;20437;-92
2021/06/05 06:42:53;;;;;;;0.90;0.90;;;18.80;99.90;;;;;;5066047;28;20430;-91
2021/06/05 06:45:20;;;;;;;1.73;1.00;;;18.90;99.90;;;;;;5070947;28;20492;-90
2021/06/05 06:47:46;;;;;;;1.10;0.90;;;19.00;99.90;;;;;;5071826;28;21014;-90
2021/06/05 06:50:17;;;;;;;2.50;0.90;;;19.00;99.90;;;;;;5067654;28;20544;-92
2021/06/05 06:52:43;;;;;;;1.33;1.23;;;19.00;99.90;;;;;;5057083;28;20826;-91
2021/06/05 06:55:10;;;;;;;2.10;1.50;;;19.10;99.90;;;;;;5056653;28;20422;-91
2021/06/05 06:57:36;;;;;;;0.80;0.80;;;19.10;99.90;;;;;;5057281;28;20430;-90
2021/06/05 07:00:07;;;;;;;1.37;0.80;;;19.10;99.90;;;;;;5057096;28;20415;-91
2021/06/05 07:02:33;;;;;;;1.87;0.90;;;19.10;99.90;;;;;;5057240;28;20462;-91
2021/06/05 07:04:59;;;;;;;0.97;0.93;;;19.20;99.90;;;;;;5059402;28;20469;-91
2021/06/05 07:07:28;;;;;;;0.90;0.90;;;19.20;99.90;;;;;;5057796;28;20445;-91
2021/06/05 07:09:55;;;;;;;1.73;0.80;;;19.20;99.90;;;;;;5057024;28;20449;-91
2021/06/05 07:12:21;;;;;;;0.70;0.70;;;19.00;99.90;;;;;;5056591;28;20514;-90
2021/06/05 07:14:51;;;;;;;1.00;0.90;;;19.00;99.90;;;;;;5056199;28;20444;-90
2021/06/05 07:17:18;;;;;;;1.83;0.90;;;18.90;99.90;;;;;;5056213;28;20446;-90
2021/06/05 07:19:44;;;;;;;1.00;0.80;;;18.90;99.90;;;;;;5056161;28;20446;-90
2021/06/05 07:22:11;;;;;;;1.40;1.30;;;18.80;99.90;;;;;;5055784;28;20489;-90
2021/06/05 07:24:39;;;;;;;1.43;0.80;;;18.80;99.90;;;;;;5055973;28;20481;-90
2021/06/05 07:27:06;;;;;;;1.70;0.80;;;18.80;99.90;;;;;;5056858;28;20441;-88
2021/06/05 07:29:32;;;;;;;0.90;0.90;;;18.80;99.90;;;;;;5056000;28;20453;-90
2021/06/05 07:32:01;;;;;;;1.00;0.83;;;18.80;99.90;;;;;;5055526;28;20466;-90
2021/06/05 07:34:28;;;;;;;0.87;0.80;;;18.90;99.90;;;;;;5055781;28;20495;-90
2021/06/05 07:36:56;;;;;;;0.93;0.93;;;19.00;99.90;;;;;;5056633;28;20446;-89
2021/06/05 07:39:27;;;;;;;0.87;0.87;;;19.00;99.90;;;;;;5055835;28;20441;-89
2021/06/05 07:41:57;;;;;;;1.00;0.90;;;19.10;99.90;;;;;;5055744;28;20470;-88
2021/06/05 07:44:24;;;;;;;0.80;0.80;;;19.10;99.90;;;;;;5054721;28;20806;-91
2021/06/05 07:46:54;;;;;;;1.23;0.70;;;19.10;99.90;;;;;;5055298;28;21003;-90
2021/06/05 07:49:21;;;;;;;1.33;1.00;;;19.10;99.90;;;;;;5055445;28;20426;-91
2021/06/05 07:51:48;;;;;;;1.67;1.00;;;19.00;99.90;;;;;;5055199;28;20461;-90
2021/06/05 07:54:14;;;;;;;0.90;0.90;;;18.80;99.90;;;;;;5055880;28;20450;-91
2021/06/05 07:56:47;;;;;;;1.20;1.10;;;18.90;99.90;;;;;;5055168;28;20442;-90
2021/06/05 07:59:15;;;;;;;2.90;1.00;;;18.90;99.90;;;;;;5055379;28;20480;-91
2021/06/05 08:01:41;;;;;;;1.10;1.00;;;18.80;99.90;;;;;;5054956;28;20476;-90
2021/06/05 08:04:08;;;;;;;2.07;1.47;;;18.90;99.90;;;;;;5054577;28;20447;-91
2021/06/05 08:06:34;;;;;;;1.03;0.93;;;18.90;99.90;;;;;;5055816;28;20834;-90
2021/06/05 08:09:00;;;;;;;1.00;1.00;;;18.90;99.90;;;;;;5056706;28;20517;-90
2021/06/05 08:11:26;;;;;;;0.83;0.83;;;18.90;99.90;;;;;;5056901;28;21026;-90
2021/06/05 08:13:53;;;;;;;2.33;1.00;;;19.00;99.90;;;;;;5055833;28;20430;-90
2021/06/05 08:16:20;;;;;;;5.40;2.10;;;19.10;99.90;;;;;;5055263;28;20442;-89
2021/06/05 08:18:53;;;;;;;3.83;1.30;;;19.20;99.90;;;;;;5055411;28;20451;-90
2021/06/05 08:21:21;;;;;;;1.37;0.90;;;19.30;99.90;;;;;;5055802;28;20488;-88
2021/06/05 08:23:47;;;;;;;5.50;1.10;;;19.40;99.90;;;;;;5054653;28;20476;-90
2021/06/05 08:26:17;;;;;;;1.67;1.10;;;19.50;99.90;;;;;;5054523;28;20496;-88
2021/06/05 08:28:44;;;;;;;1.60;1.00;;;19.60;99.90;;;;;;5054748;28;20438;-88
2021/06/05 08:31:13;;;;;;;1.10;1.10;;;19.40;99.90;;;;;;5054371;28;20474;-89
2021/06/05 08:33:41;;;;;;;3.07;1.17;;;19.50;99.90;;;;;;5054705;28;20450;-88
2021/06/05 08:36:09;;;;;;;1.60;1.43;;;19.50;99.90;;;;;;5054714;28;20442;-89
2021/06/05 08:38:35;;;;;;;1.10;1.00;;;19.60;99.90;;;;;;5054171;28;20470;-88
2021/06/05 08:41:05;;;;;;;3.20;1.20;;;19.60;99.90;;;;;;5054415;28;20465;-89
2021/06/05 08:43:36;;;;;;;2.80;1.10;;;19.70;99.90;;;;;;5054405;28;20449;-89
2021/06/05 08:46:04;;;;;;;1.73;1.20;;;19.90;99.90;;;;;;5054599;28;20471;-87
2021/06/05 08:48:31;;;;;;;1.30;1.20;;;20.10;99.90;;;;;;5054551;28;20813;-88
2021/06/05 08:51:11;;;;;;;0.90;0.90;;;20.20;99.90;;;;;;5054284;28;20949;-88
2021/06/05 08:53:37;;;;;;;1.60;1.50;;;20.40;99.90;;;;;;5054647;28;20438;-91
2021/06/05 08:56:08;;;;;;;3.43;0.90;;;20.40;99.90;;;;;;5057968;28;20449;-89
2021/06/05 08:58:39;;;;;;;1.57;1.00;;;20.40;99.90;;;;;;5064984;28;20503;-89
2021/06/05 09:01:11;;;;;;;1.40;1.27;;;20.50;99.90;;;;;;5066848;28;20473;-89
2021/06/05 09:03:39;;;;;;;1.93;1.00;;;20.60;99.90;;;;;;5069901;28;20433;-89
2021/06/05 09:06:10;;;;;;;1.43;0.87;;;20.70;99.90;;;;;;5058392;28;20487;-89
2021/06/05 09:08:36;;;;;;;3.40;1.23;;;20.90;99.90;;;;;;5058166;28;20461;-89
2021/06/05 09:11:04;;;;;;;1.97;1.13;;;21.20;99.90;;;;;;5058076;28;20453;-89
2021/06/05 09:13:32;;;;;;;0.83;0.83;;;21.50;99.90;;;;;;5058086;28;20507;-90
2021/06/05 09:16:36;;;;;;;1.90;1.30;;;21.80;99.90;;;;;;5058227;28;20452;-91
2021/06/05 09:19:12;;;;;;;1.00;0.90;;;22.00;99.90;;;;;;5058040;28;20448;-90
2021/06/05 09:21:42;;;;;;;1.10;1.10;;;22.00;99.90;;;;;;5058088;28;20453;-89
2021/06/05 09:24:18;;;;;;;1.13;1.03;;;22.10;99.90;;;;;;5057971;28;20794;-90
2021/06/05 09:26:48;;;;;;;1.40;0.90;;;22.00;99.90;;;;;;5057747;28;20838;-90
2021/06/05 09:29:17;;;;;;;1.00;0.90;;;22.00;99.90;;;;;;5057880;28;20811;-88
2021/06/05 09:31:52;;;;;;;1.40;1.30;;;21.90;99.90;;;;;;5057743;28;20471;-89
2021/06/05 09:34:19;;;;;;;1.57;1.10;;;21.70;99.90;;;;;;5057709;28;20814;-91
2021/06/05 09:36:46;;;;;;;1.20;1.10;;;21.40;99.90;;;;;;5057237;28;20456;-89
2021/06/05 09:39:34;;;;;;;1.10;1.00;;;21.20;99.90;;;;;;5057277;28;20461;-90
2021/06/05 09:42:06;;;;;;;1.30;1.13;;;20.90;99.90;;;;;;5057605;28;20453;-91
2021/06/05 09:44:43;;;;;;;1.27;1.17;;;20.60;99.90;;;;;;5057541;28;20467;-87
2021/06/05 09:47:22;;;;;;;1.50;1.40;;;20.50;99.90;;;;;;5057674;28;20468;-88
2021/06/05 09:49:53;;;;;;;1.50;1.40;;;20.30;99.90;;;;;;5057307;28;20437;-87
2021/06/05 09:52:33;;;;;;;1.57;1.47;;;20.10;99.90;;;;;;5057807;28;20485;-86
2021/06/05 09:55:26;;;;;;;3.83;2.70;;;19.90;99.90;;;;;;5056980;28;20425;-86
2021/06/05 09:57:53;;;;;;;1.63;1.53;;;19.80;99.90;;;;;;5057116;28;20496;-86
2021/06/05 10:00:25;;;;;;;1.67;1.57;;;19.70;99.90;;;;;;5056950;28;20442;-85
2021/06/05 10:02:54;;;;;;;1.67;1.40;;;19.60;99.90;;;;;;5056835;28;20415;-85
2021/06/05 10:05:28;;;;;;;2.23;1.40;;;19.50;99.90;;;;;;5056956;28;20481;-86
2021/06/05 10:07:57;;;;;;;3.10;1.70;;;19.50;99.90;;;;;;5055931;28;20430;-85
2021/06/05 10:10:37;;;;;;;2.87;2.07;;;19.40;99.90;;;;;;5056543;28;20963;-86
2021/06/05 10:13:09;;;;;;;2.50;1.40;;;19.40;99.90;;;;;;5056785;28;20533;-85
2021/06/05 10:15:41;;;;;;;3.53;3.23;;;19.40;99.90;;;;;;5057377;28;20442;-85
2021/06/05 10:18:14;;;;;;;4.30;2.17;;;19.40;99.90;;;;;;5056509;28;20426;-86
2021/06/05 10:20:51;;;;;;;3.40;3.10;;;19.40;99.90;;;;;;5056922;28;20501;-86
2021/06/05 10:23:23;;;;;;;1.97;1.83;;;19.40;99.90;;;;;;5056946;28;20840;-86
2021/06/05 10:25:55;;;;;;;1.57;1.47;;;19.40;99.90;;;;;;5056589;28;20457;-85
2021/06/05 10:28:24;;;;;;;1.53;1.43;;;19.50;99.90;;;;;;5056492;28;20430;-87
2021/06/05 10:30:53;;;;;;;2.47;2.30;;;19.50;99.90;;;;;;5056363;28;20465;-86
2021/06/05 10:33:33;;;;;;;2.00;1.90;;;19.50;99.90;;;;;;5056987;28;20893;-87
2021/06/05 10:36:03;;;;;;;1.67;1.57;;;19.50;99.90;;;;;;5056799;28;20434;-86
2021/06/05 10:38:39;;;;;;;2.73;1.50;;;19.40;99.90;;;;;;5056194;28;20477;-86
2021/06/05 10:41:09;;;;;;;3.53;2.67;;;19.30;99.90;;;;;;5056368;28;20450;-86
2021/06/05 10:43:37;;;;;;;2.43;1.60;;;19.40;99.90;;;;;;5056536;28;20449;-86
2021/06/05 10:46:15;;;;;;;4.20;1.40;;;19.50;99.90;;;;;;5056393;28;20466;-87
2021/06/05 10:48:43;;;;;;;1.30;1.20;;;19.60;99.90;;;;;;5057410;28;20434;-88
2021/06/05 10:51:17;;;;;;;3.57;1.67;;;19.70;99.90;;;;;;5056301;28;20527;-87
2021/06/05 10:53:52;;;;;;;1.63;1.20;;;19.90;99.90;;;;;;5056875;28;20500;-88
2021/06/05 10:56:21;;;;;;;2.10;1.90;;;20.20;99.90;;;;;;5055238;28;20821;-81
2021/06/05 10:58:51;;;;;;;1.20;1.20;;;20.60;99.90;;;;;;5055442;28;20434;-82
2021/06/05 11:01:46;;;;;;;3.80;2.03;;;21.00;99.90;;;;;;5055298;28;20475;-82
2021/06/05 11:04:38;;;;;;;3.77;1.70;;;21.20;99.90;;;;;;5055026;28;20556;-83
2021/06/05 11:07:31;;;;;;;1.67;1.57;;;21.30;99.90;;;;;;5054761;28;20410;-82
2021/06/05 11:10:03;;;;;;;1.53;1.43;;;21.30;99.90;;;;;;5040685;28;20458;-82
2021/06/05 11:12:45;;;;;;;1.83;1.50;;;21.10;99.90;;;;;;5055380;28;20798;-83
2021/06/05 11:15:59;;;;;;;1.80;1.70;;;21.00;99.90;;;;;;5054976;28;20419;-84
2021/06/05 11:18:31;;;;;;;4.57;2.07;;;20.90;99.90;;;;;;5055205;28;20452;-83
2021/06/05 11:20:59;;;;;;;2.60;1.80;;;20.90;99.90;;;;;;5054253;28;20457;-85
2021/06/05 11:23:29;;;;;;;2.10;1.70;;;20.80;99.90;;;;;;5055160;28;20841;-82
2021/06/05 11:26:00;;;;;;;1.60;1.50;;;20.80;99.90;;;;;;5054355;28;20508;-82
2021/06/05 11:28:50;;;;;;;1.40;1.40;;;20.80;99.90;;;;;;5054697;28;20425;-83
2021/06/05 11:31:57;;;;;;;1.97;1.87;;;20.70;99.90;;;;;;5054886;28;20466;-83
2021/06/05 11:34:58;;;;;;;1.70;1.40;;;20.80;99.90;;;;;;5054809;28;20527;-82
2021/06/05 11:37:53;;;;;;;1.40;1.40;;;20.90;99.90;;;;;;5054622;28;20564;-83
2021/06/05 11:40:52;;;;;;;1.33;1.33;;;21.00;99.90;;;;;;5054585;28;20509;-83
2021/06/05 11:43:38;;;;;;;1.50;1.40;;;21.00;99.90;;;;;;5042722;28;20453;-82
2021/06/05 11:46:09;;;;;;;1.40;1.30;;;20.80;99.90;;;;;;5054353;28;20481;-83
2021/06/05 11:48:50;;;;;;;2.30;1.93;;;20.70;99.90;;;;;;5054589;28;20457;-83
2021/06/05 11:51:36;;;;;;;1.00;1.00;;;20.60;99.90;;;;;;5054295;28;20481;-82
2021/06/05 11:54:19;;;;;;;1.30;1.20;;;20.60;99.90;;;;;;5054110;28;20418;-83
2021/06/05 11:56:49;;;;;;;1.27;1.17;;;20.60;99.90;;;;;;5054218;28;20600;-83
2021/06/05 11:59:26;;;;;;;1.10;1.00;;;20.70;99.90;;;;;;5053763;28;20500;-82
2021/06/05 12:01:53;;;;;;;1.27;0.90;;;20.80;99.90;;;;;;5053688;28;20811;-83
2021/06/05 12:04:23;;;;;;;2.23;1.50;;;21.10;99.90;;;;;;5054256;28;20449;-83
2021/06/05 12:06:51;;;;;;;1.07;1.07;;;21.30;99.90;;;;;;5053889;28;20495;-83
2021/06/05 12:09:21;;;;;;;0.90;0.90;;;21.40;99.90;;;;;;5054758;28;20437;-85
2021/06/05 12:11:51;;;;;;;1.27;0.73;;;21.40;99.90;;;;;;5054039;28;20829;-83
2021/06/05 12:14:37;;;;;;;0.77;0.77;;;21.30;99.90;;;;;;5053955;28;20414;-83
2021/06/05 12:17:08;;;;;;;0.80;0.80;;;21.20;99.90;;;;;;5054295;28;20434;-83
2021/06/05 12:19:36;;;;;;;0.70;0.70;;;21.20;99.90;;;;;;5054403;28;20453;-83
2021/06/05 12:22:17;;;;;;;1.07;0.80;;;21.20;99.90;;;;;;5053852;28;20457;-83
2021/06/05 12:24:48;;;;;;;0.80;0.80;;;21.20;99.90;;;;;;5053760;28;20438;-83
2021/06/05 12:27:24;;;;;;;0.70;0.70;;;21.20;99.90;;;;;;5054504;28;20460;-84
2021/06/05 12:29:52;;;;;;;1.20;0.70;;;21.20;99.90;;;;;;5053952;28;20434;-83
2021/06/05 12:32:26;;;;;;;0.80;0.80;;;21.20;99.90;;;;;;5053493;28;20469;-84
2021/06/05 12:34:53;;;;;;;1.07;0.80;;;21.20;99.90;;;;;;5053924;28;20429;-84
2021/06/05 12:37:21;;;;;;;0.90;0.90;;;21.20;99.90;;;;;;5053772;28;20477;-84
2021/06/05 12:39:51;;;;;;;0.80;0.80;;;21.10;99.90;;;;;;5053726;28;20429;-84
2021/06/05 12:42:24;;;;;;;0.93;0.93;;;21.10;99.90;;;;;;5053974;28;20476;-84
2021/06/05 12:44:56;;;;;;;1.33;0.70;;;21.10;99.90;;;;;;5053752;28;20430;-84
2021/06/05 12:47:27;;;;;;;0.70;0.70;;;21.00;99.90;;;;;;5053898;28;20440;-84
2021/06/05 12:49:53;;;;;;;0.90;0.90;;;20.80;99.90;;;;;;5053693;28;20935;-84
2021/06/05 12:52:28;;;;;;;0.70;0.70;;;20.70;99.90;;;;;;5053453;28;20450;-85
2021/06/05 12:55:10;;;;;;;0.80;0.80;;;20.60;99.90;;;;;;5054304;28;20503;-84
2021/06/05 12:57:40;;;;;;;0.90;0.90;;;20.50;99.90;;;;;;5053665;28;20453;-83
2021/06/05 13:00:22;;;;;;;0.70;0.70;;;20.50;99.90;;;;;;5053671;28;20433;-84
2021/06/05 13:02:50;;;;;;;2.40;0.80;;;20.40;99.90;;;;;;5053681;28;20876;-83
2021/06/05 13:05:19;;;;;;;0.87;0.80;;;20.40;99.90;;;;;;5053788;28;20476;-84